Time;durP1;ratioP1;P1;durP2;ratioP2;P2;SDS_P1;SDS_P2;PMS_P1;PMS_P2;Temp;Humidity;BMP_temperature;BMP_pressure;BME280_temperature;BME280_humidity;BME280_pressure;Samples;Min_cycle;Max_cycle;Signal;HPM_P1;HPM_P2
2022/11/06 00:00:46;;;;;;;94.78;14.75;;;;;;;;;;5094391;28;20051;-82
2022/11/06 00:03:14;;;;;;;34.00;9.00;;;;;;;;;;5094132;28;20067;-81
2022/11/06 00:08:29;;;;;;;29.25;10.90;;;;;;;;;;5094150;28;20040;-82
2022/11/06 00:10:56;;;;;;;26.98;9.95;;;;;;;;;;5093651;28;20044;-82
2022/11/06 00:13:24;;;;;;;17.90;8.93;;;;;;;;;;5096614;28;20577;-82
2022/11/06 00:15:51;;;;;;;22.60;9.50;;;;;;;;;;5096356;28;20052;-82
2022/11/06 00:18:19;;;;;;;21.13;9.30;;;;;;;;;;5094193;28;20127;-82
2022/11/06 00:20:46;;;;;;;16.23;9.82;;;;;;;;;;5095800;28;20513;-82
2022/11/06 00:23:13;;;;;;;18.63;10.07;;;;;;;;;;5094424;28;20050;-82
2022/11/06 00:25:40;;;;;;;20.52;9.93;;;;;;;;;;5095046;28;20058;-82
2022/11/06 00:28:07;;;;;;;23.20;10.05;;;;;;;;;;5093751;28;20045;-82
2022/11/06 00:30:35;;;;;;;16.98;9.32;;;;;;;;;;5095514;28;20097;-82
2022/11/06 00:33:02;;;;;;;26.05;9.80;;;;;;;;;;5092777;28;20051;-82
2022/11/06 00:35:29;;;;;;;27.38;9.88;;;;;;;;;;5089545;28;20052;-81
2022/11/06 00:37:56;;;;;;;16.35;9.27;;;;;;;;;;5088158;28;20044;-81
2022/11/06 00:40:24;;;;;;;21.92;10.15;;;;;;;;;;5090285;28;20051;-81
2022/11/06 00:42:53;;;;;;;37.60;10.95;;;;;;;;;;5091724;28;20051;-82
2022/11/06 00:45:20;;;;;;;19.65;9.93;;;;;;;;;;5090249;28;20044;-80
2022/11/06 00:47:47;;;;;;;13.13;9.05;;;;;;;;;;5093162;28;20059;-82
2022/11/06 00:50:15;;;;;;;18.13;9.55;;;;;;;;;;5091521;28;20070;-82
2022/11/06 00:52:42;;;;;;;14.95;9.18;;;;;;;;;;5093199;28;20058;-82
2022/11/06 00:55:09;;;;;;;26.63;10.52;;;;;;;;;;5092529;28;20052;-82
2022/11/06 00:57:36;;;;;;;15.65;8.50;;;;;;;;;;5092405;28;20052;-82
2022/11/06 01:00:04;;;;;;;15.40;8.02;;;;;;;;;;5092793;28;20071;-82
2022/11/06 01:02:31;;;;;;;14.20;9.38;;;;;;;;;;5091242;28;20044;-83
2022/11/06 01:04:58;;;;;;;17.63;9.32;;;;;;;;;;5093713;28;20055;-82
2022/11/06 01:07:26;;;;;;;21.15;10.15;;;;;;;;;;5089955;28;20056;-83
2022/11/06 01:09:53;;;;;;;26.40;9.85;;;;;;;;;;5076316;28;20109;-82
2022/11/06 01:12:20;;;;;;;73.60;14.02;;;;;;;;;;5079063;28;20087;-82
2022/11/06 01:14:47;;;;;;;20.83;10.63;;;;;;;;;;5076869;28;20044;-82
2022/11/06 01:17:15;;;;;;;44.20;12.00;;;;;;;;;;5076660;28;20048;-82
2022/11/06 01:19:42;;;;;;;27.77;11.57;;;;;;;;;;5078367;28;20055;-82
2022/11/06 01:22:09;;;;;;;22.92;11.13;;;;;;;;;;5076488;28;20049;-82
2022/11/06 01:24:36;;;;;;;23.83;11.43;;;;;;;;;;5077206;28;20047;-82
2022/11/06 01:27:04;;;;;;;18.88;11.38;;;;;;;;;;5077968;28;20055;-82
2022/11/06 01:29:51;;;;;;;21.77;11.18;;;;;;;;;;5076503;28;20055;-82
2022/11/06 01:32:18;;;;;;;28.38;12.02;;;;;;;;;;5075686;28;20063;-82
2022/11/06 01:34:45;;;;;;;31.63;12.45;;;;;;;;;;5076756;28;20053;-82
2022/11/06 01:37:13;;;;;;;20.98;10.93;;;;;;;;;;5075354;28;20410;-81
2022/11/06 01:39:41;;;;;;;17.52;10.65;;;;;;;;;;5075799;28;20045;-83
2022/11/06 01:42:10;;;;;;;28.35;12.98;;;;;;;;;;5075426;28;20053;-81
2022/11/06 01:44:40;;;;;;;29.30;12.48;;;;;;;;;;5074942;28;20495;-82
2022/11/06 01:47:20;;;;;;;25.42;12.30;;;;;;;;;;5076673;28;20067;-82
2022/11/06 01:49:47;;;;;;;16.48;9.68;;;;;;;;;;5075134;28;20053;-82
2022/11/06 01:52:16;;;;;;;26.25;11.50;;;;;;;;;;5076221;28;20048;-82
2022/11/06 01:54:43;;;;;;;18.05;10.35;;;;;;;;;;5076574;28;20414;-82
2022/11/06 01:57:11;;;;;;;22.15;10.98;;;;;;;;;;5076035;28;20418;-82
2022/11/06 01:59:41;;;;;;;28.05;11.85;;;;;;;;;;5076039;28;20070;-82
2022/11/06 02:02:09;;;;;;;18.85;10.88;;;;;;;;;;5074468;28;20434;-82
2022/11/06 02:04:38;;;;;;;19.67;10.77;;;;;;;;;;5078468;28;20071;-82
2022/11/06 02:07:06;;;;;;;27.60;12.73;;;;;;;;;;5079380;28;20063;-83
2022/11/06 02:09:34;;;;;;;26.23;12.30;;;;;;;;;;5078723;28;20053;-83
2022/11/06 02:12:20;;;;;;;27.55;12.43;;;;;;;;;;5073446;28;20063;-81
2022/11/06 02:15:06;;;;;;;28.63;11.82;;;;;;;;;;5073048;28;20049;-80
2022/11/06 02:17:36;;;;;;;21.70;11.70;;;;;;;;;;5074131;28;20079;-81
2022/11/06 02:20:03;;;;;;;30.10;13.93;;;;;;;;;;5073055;28;20044;-81
2022/11/06 02:22:33;;;;;;;23.92;12.77;;;;;;;;;;5075482;28;20484;-82
2022/11/06 02:25:06;;;;;;;19.05;11.82;;;;;;;;;;5077697;28;20049;-82
2022/11/06 02:27:34;;;;;;;20.58;12.43;;;;;;;;;;5076989;28;20049;-83
2022/11/06 02:30:07;;;;;;;29.63;13.77;;;;;;;;;;5077721;28;20059;-82
2022/11/06 02:32:39;;;;;;;28.23;13.53;;;;;;;;;;5077452;28;20051;-82
2022/11/06 02:35:15;;;;;;;24.75;12.77;;;;;;;;;;5077042;28;20495;-82
2022/11/06 02:37:44;;;;;;;25.52;14.32;;;;;;;;;;5077358;28;20052;-83
2022/11/06 02:40:12;;;;;;;27.90;13.65;;;;;;;;;;5075401;28;20070;-82
2022/11/06 02:42:41;;;;;;;22.42;12.13;;;;;;;;;;5075961;28;20052;-82
2022/11/06 02:45:10;;;;;;;23.13;13.82;;;;;;;;;;5076410;28;20048;-81
2022/11/06 02:47:38;;;;;;;18.70;11.10;;;;;;;;;;5074936;28;20045;-81
2022/11/06 02:50:05;;;;;;;20.52;11.63;;;;;;;;;;5074617;28;20479;-82
2022/11/06 02:52:53;;;;;;;14.75;10.40;;;;;;;;;;5075894;28;20438;-81
2022/11/06 02:55:27;;;;;;;30.52;11.43;;;;;;;;;;5079264;28;20097;-82
2022/11/06 02:57:56;;;;;;;21.45;11.32;;;;;;;;;;5077514;28;20142;-82
2022/11/06 03:00:24;;;;;;;19.48;12.27;;;;;;;;;;5075911;28;20044;-83
2022/11/06 03:03:00;;;;;;;28.35;13.55;;;;;;;;;;5076179;28;20119;-80
2022/11/06 03:05:33;;;;;;;21.40;12.77;;;;;;;;;;5075559;28;20058;-83
2022/11/06 03:08:08;;;;;;;27.10;14.55;;;;;;;;;;5075632;28;20056;-83
2022/11/06 03:10:41;;;;;;;20.98;12.00;;;;;;;;;;5076725;28;20067;-82
2022/11/06 03:13:27;;;;;;;29.65;13.95;;;;;;;;;;5075377;28;20411;-82
2022/11/06 03:16:12;;;;;;;26.42;14.52;;;;;;;;;;5076617;28;20058;-83
2022/11/06 03:18:54;;;;;;;22.40;12.68;;;;;;;;;;5075580;28;20049;-82
2022/11/06 03:21:24;;;;;;;30.05;14.50;;;;;;;;;;5075928;28;20514;-81
2022/11/06 03:23:56;;;;;;;19.48;11.10;;;;;;;;;;5073980;28;20048;-82
2022/11/06 03:26:30;;;;;;;22.00;12.38;;;;;;;;;;5075478;28;20421;-82
2022/11/06 03:28:59;;;;;;;29.98;14.57;;;;;;;;;;5075380;28;20045;-83
2022/11/06 03:31:32;;;;;;;26.77;13.85;;;;;;;;;;5075119;28;20053;-82
2022/11/06 03:34:02;;;;;;;28.13;14.70;;;;;;;;;;5074728;28;20048;-82
2022/11/06 03:36:36;;;;;;;29.25;14.50;;;;;;;;;;5074804;28;20052;-83
2022/11/06 03:39:08;;;;;;;33.13;16.25;;;;;;;;;;5051368;22;20125;-82
2022/11/06 03:41:48;;;;;;;32.57;15.33;;;;;;;;;;5015554;28;20129;-83
2022/11/06 03:44:16;;;;;;;38.00;17.98;;;;;;;;;;5015631;28;20419;-83
2022/11/06 03:46:47;;;;;;;33.75;15.50;;;;;;;;;;5032980;28;20045;-83
2022/11/06 03:49:18;;;;;;;24.23;14.50;;;;;;;;;;5033008;28;20419;-83
2022/11/06 03:51:49;;;;;;;26.42;13.65;;;;;;;;;;5015821;28;20060;-83
2022/11/06 03:54:38;;;;;;;34.47;15.68;;;;;;;;;;5015639;28;20045;-82
2022/11/06 03:57:09;;;;;;;31.88;16.08;;;;;;;;;;5032674;28;20055;-84
2022/11/06 03:59:39;;;;;;;47.20;19.05;;;;;;;;;;5017661;28;20105;-86
2022/11/06 04:02:06;;;;;;;35.90;16.88;;;;;;;;;;5047635;28;20507;-84
2022/11/06 04:04:36;;;;;;;31.20;17.00;;;;;;;;;;5030228;28;20049;-84
2022/11/06 04:07:09;;;;;;;45.25;20.00;;;;;;;;;;5028875;28;20072;-86
2022/11/06 04:15:17;;;;;;;62.33;23.27;;;;;;;;;;5042518;28;20064;-86
2022/11/06 04:17:44;;;;;;;77.05;24.13;;;;;;;;;;5025236;28;20563;-85
2022/11/06 04:23:22;;;;;;;59.72;23.70;;;;;;;;;;5042039;28;20136;-85
2022/11/06 04:28:46;;;;;;;49.45;20.48;;;;;;;;;;5039552;28;20064;-85
2022/11/06 04:31:13;;;;;;;51.75;22.48;;;;;;;;;;5021581;28;20067;-84
2022/11/06 04:33:57;;;;;;;52.97;21.73;;;;;;;;;;5020741;28;20056;-86
2022/11/06 04:36:24;;;;;;;50.35;20.52;;;;;;;;;;5019336;28;20141;-85
2022/11/06 04:38:55;;;;;;;32.03;17.45;;;;;;;;;;5036896;28;20055;-83
2022/11/06 04:41:33;;;;;;;45.22;19.58;;;;;;;;;;5019507;28;20045;-84
2022/11/06 04:44:06;;;;;;;35.53;17.15;;;;;;;;;;5038957;28;20045;-84
2022/11/06 04:46:37;;;;;;;33.15;16.42;;;;;;;;;;5040150;28;20052;-84
2022/11/06 04:49:05;;;;;;;39.88;17.50;;;;;;;;;;5020819;28;20064;-85
2022/11/06 04:51:35;;;;;;;43.78;18.10;;;;;;;;;;5020774;28;20045;-85
2022/11/06 04:54:02;;;;;;;29.75;16.27;;;;;;;;;;5020877;28;20060;-85
2022/11/06 04:56:30;;;;;;;40.35;18.42;;;;;;;;;;5020648;28;20563;-86
2022/11/06 04:59:01;;;;;;;40.63;18.02;;;;;;;;;;5020817;28;20041;-85
2022/11/06 05:01:29;;;;;;;39.10;17.42;;;;;;;;;;5020162;28;20049;-86
2022/11/06 05:03:56;;;;;;;29.98;15.98;;;;;;;;;;5019442;28;20049;-86
2022/11/06 05:06:23;;;;;;;31.80;16.48;;;;;;;;;;5036789;28;20504;-85
2022/11/06 05:08:57;;;;;;;36.07;15.83;;;;;;;;;;5018550;28;20423;-84
2022/11/06 05:11:24;;;;;;;41.63;16.15;;;;;;;;;;5018147;28;20056;-84
2022/11/06 05:13:51;;;;;;;41.30;17.95;;;;;;;;;;5017985;28;20060;-85
2022/11/06 05:16:19;;;;;;;36.50;16.38;;;;;;;;;;5018459;28;20049;-85
2022/11/06 05:18:46;;;;;;;41.60;18.35;;;;;;;;;;5018162;28;20049;-85
2022/11/06 05:23:59;;;;;;;44.60;18.88;;;;;;;;;;5035498;28;20045;-84
2022/11/06 05:26:26;;;;;;;42.80;18.73;;;;;;;;;;5018219;28;20050;-82
2022/11/06 05:28:53;;;;;;;38.60;18.33;;;;;;;;;;5017936;28;20045;-81
2022/11/06 05:31:20;;;;;;;36.20;19.23;;;;;;;;;;5020534;28;20053;-84
2022/11/06 05:33:47;;;;;;;58.10;22.67;;;;;;;;;;5049075;28;20053;-84
2022/11/06 05:36:15;;;;;;;48.67;20.95;;;;;;;;;;5039148;28;20084;-85
2022/11/06 05:38:42;;;;;;;42.42;19.13;;;;;;;;;;5035234;28;20064;-86
2022/11/06 05:41:11;;;;;;;43.67;18.48;;;;;;;;;;5031795;28;20080;-84
2022/11/06 05:43:39;;;;;;;40.80;18.52;;;;;;;;;;5050310;28;20046;-83
2022/11/06 05:46:06;;;;;;;56.53;19.88;;;;;;;;;;5029875;28;20132;-86
2022/11/06 05:48:53;;;;;;;49.13;19.83;;;;;;;;;;5033717;28;20053;-84
2022/11/06 05:51:21;;;;;;;39.38;19.00;;;;;;;;;;5030935;28;20113;-84
2022/11/06 05:53:48;;;;;;;50.13;18.58;;;;;;;;;;5047667;28;20049;-83
2022/11/06 05:56:15;;;;;;;82.45;45.35;;;;;;;;;;5029346;28;20053;-83
2022/11/06 05:58:42;;;;;;;45.45;22.38;;;;;;;;;;5047011;28;20052;-83
2022/11/06 06:01:10;;;;;;;48.22;29.88;;;;;;;;;;5046163;28;20076;-83
2022/11/06 06:03:37;;;;;;;53.42;23.30;;;;;;;;;;5029197;28;20460;-84
2022/11/06 06:06:04;;;;;;;59.05;21.38;;;;;;;;;;5047283;28;20426;-83
2022/11/06 06:08:31;;;;;;;77.05;45.75;;;;;;;;;;5028630;28;20053;-83
2022/11/06 06:10:59;;;;;;;48.20;23.13;;;;;;;;;;5027872;28;20096;-84
2022/11/06 06:13:26;;;;;;;34.88;16.90;;;;;;;;;;5026788;28;20064;-83
2022/11/06 06:15:53;;;;;;;54.35;21.58;;;;;;;;;;5027570;28;20132;-82
2022/11/06 06:18:20;;;;;;;35.13;17.85;;;;;;;;;;5043829;28;20144;-84
2022/11/06 06:20:47;;;;;;;33.83;16.60;;;;;;;;;;5042069;28;20049;-83
2022/11/06 06:23:15;;;;;;;31.00;17.52;;;;;;;;;;5024806;28;20056;-84
2022/11/06 06:25:42;;;;;;;28.42;16.05;;;;;;;;;;5042727;28;20499;-83
2022/11/06 06:28:09;;;;;;;27.35;15.80;;;;;;;;;;5023839;28;20427;-83
2022/11/06 06:30:37;;;;;;;29.38;15.25;;;;;;;;;;5024258;28;20077;-83
2022/11/06 06:33:05;;;;;;;27.67;14.43;;;;;;;;;;5042129;28;20060;-83
2022/11/06 06:35:33;;;;;;;30.90;14.07;;;;;;;;;;5042251;28;20049;-83
2022/11/06 06:38:00;;;;;;;26.00;13.48;;;;;;;;;;5042591;28;20504;-83
2022/11/06 06:40:28;;;;;;;21.95;13.38;;;;;;;;;;5023141;28;20109;-83
2022/11/06 06:42:56;;;;;;;33.60;14.10;;;;;;;;;;5023570;28;20052;-83
2022/11/06 06:45:24;;;;;;;24.10;12.55;;;;;;;;;;5019820;28;20085;-83
2022/11/06 06:47:51;;;;;;;24.80;12.98;;;;;;;;;;5016316;28;20045;-83
2022/11/06 06:50:18;;;;;;;23.45;12.90;;;;;;;;;;5016435;28;20492;-80
2022/11/06 06:52:46;;;;;;;23.83;12.93;;;;;;;;;;5034032;28;20045;-81
2022/11/06 06:55:13;;;;;;;23.48;12.45;;;;;;;;;;5016394;28;20542;-82
2022/11/06 06:57:40;;;;;;;26.15;14.32;;;;;;;;;;5034295;28;20514;-82
2022/11/06 07:00:08;;;;;;;35.88;14.85;;;;;;;;;;5034155;28;20762;-82
2022/11/06 07:02:35;;;;;;;26.25;11.90;;;;;;;;;;5016542;28;20042;-82
2022/11/06 07:05:03;;;;;;;26.20;13.10;;;;;;;;;;5033898;28;20050;-82
2022/11/06 07:07:31;;;;;;;22.73;13.65;;;;;;;;;;5015671;28;20049;-82
2022/11/06 07:09:58;;;;;;;28.05;14.73;;;;;;;;;;5016623;28;20055;-82
2022/11/06 07:12:25;;;;;;;23.20;14.23;;;;;;;;;;5034213;28;20057;-83
2022/11/06 07:14:52;;;;;;;17.10;12.30;;;;;;;;;;5022133;28;20064;-84
2022/11/06 07:17:20;;;;;;;21.13;12.00;;;;;;;;;;5032193;28;20109;-84
2022/11/06 07:19:47;;;;;;;17.75;10.73;;;;;;;;;;5030988;28;20069;-83
2022/11/06 07:22:14;;;;;;;21.77;11.18;;;;;;;;;;5031434;28;20499;-86
2022/11/06 07:24:41;;;;;;;15.73;11.27;;;;;;;;;;5029569;28;20045;-82
2022/11/06 07:27:10;;;;;;;15.75;10.30;;;;;;;;;;5027179;28;20049;-84
2022/11/06 07:29:37;;;;;;;22.05;11.40;;;;;;;;;;5046141;28;20049;-83
2022/11/06 07:32:07;;;;;;;19.17;11.82;;;;;;;;;;5027167;28;20104;-83
2022/11/06 07:34:37;;;;;;;15.43;10.23;;;;;;;;;;5028534;28;20063;-83
2022/11/06 07:37:05;;;;;;;14.25;10.00;;;;;;;;;;5046355;28;20050;-84
2022/11/06 07:39:34;;;;;;;20.13;11.18;;;;;;;;;;5044429;28;20075;-83
2022/11/06 07:42:01;;;;;;;19.63;11.75;;;;;;;;;;5027834;28;20045;-83
2022/11/06 07:44:28;;;;;;;20.92;11.63;;;;;;;;;;5043835;28;20049;-82
2022/11/06 07:46:55;;;;;;;24.77;11.18;;;;;;;;;;5024970;28;20060;-83
2022/11/06 07:49:22;;;;;;;33.63;14.60;;;;;;;;;;5043532;28;20076;-83
2022/11/06 07:51:49;;;;;;;24.23;11.85;;;;;;;;;;5021284;28;20136;-82
2022/11/06 07:54:17;;;;;;;21.10;11.45;;;;;;;;;;5026522;28;20519;-83
2022/11/06 07:56:44;;;;;;;19.02;11.90;;;;;;;;;;5024272;28;20049;-83
2022/11/06 07:59:11;;;;;;;22.52;11.63;;;;;;;;;;5026597;28;20416;-83
2022/11/06 08:01:38;;;;;;;23.08;11.73;;;;;;;;;;5019687;28;20050;-80
2022/11/06 08:04:06;;;;;;;21.23;10.68;;;;;;;;;;5017608;28;20051;-82
2022/11/06 08:06:33;;;;;;;23.48;12.27;;;;;;;;;;5036694;28;20060;-81
2022/11/06 08:09:00;;;;;;;20.27;11.10;;;;;;;;;;5018063;28;20056;-83
2022/11/06 08:11:27;;;;;;;19.40;11.20;;;;;;;;;;5018163;28;20049;-83
2022/11/06 08:13:54;;;;;;;21.33;12.07;;;;;;;;;;5017653;28;20419;-81
2022/11/06 08:16:22;;;;;;;17.27;10.45;;;;;;;;;;5017583;28;20496;-83
2022/11/06 08:18:49;;;;;;;26.02;11.80;;;;;;;;;;5018845;28;20049;-81
2022/11/06 08:21:17;;;;;;;35.72;18.33;;;;;;;;;;5022417;28;20055;-82
2022/11/06 08:23:44;;;;;;;26.27;17.17;;;;;;;;;;5039051;28;20053;-81
2022/11/06 08:26:11;;;;;;;38.08;23.85;;;;;;;;;;5018772;28;20053;-81
2022/11/06 08:28:39;;;;;;;27.83;15.93;;;;;;;;;;5036652;28;20103;-82
2022/11/06 08:31:07;;;;;;;19.65;11.88;;;;;;;;;;5018755;28;20046;-81
2022/11/06 08:33:36;;;;;;;12.43;9.57;;;;;;;;;;5018780;28;20060;-83
2022/11/06 08:36:04;;;;;;;21.05;12.48;;;;;;;;;;5018530;28;20437;-83
2022/11/06 08:38:31;;;;;;;16.85;12.93;;;;;;;;;;5015277;28;20479;-81
2022/11/06 08:41:03;;;;;;;9.40;6.68;;;;;;;;;;5016689;28;20133;-84
2022/11/06 08:43:30;;;;;;;11.68;7.82;;;;;;;;;;5015578;28;20056;-82
2022/11/06 08:45:59;;;;;;;7.25;6.40;;;;;;;;;;5015838;28;20046;-83
2022/11/06 08:48:26;;;;;;;7.63;6.18;;;;;;;;;;5015236;28;20050;-81
2022/11/06 08:50:53;;;;;;;8.27;5.60;;;;;;;;;;5015323;28;20046;-83
2022/11/06 08:53:21;;;;;;;7.13;5.70;;;;;;;;;;5015330;28;20053;-82
2022/11/06 08:55:48;;;;;;;14.18;5.13;;;;;;;;;;5015317;28;20081;-82
2022/11/06 08:58:15;;;;;;;9.50;5.95;;;;;;;;;;5015407;28;20045;-82
2022/11/06 09:00:42;;;;;;;5.88;3.78;;;;;;;;;;5020501;28;20049;-84
2022/11/06 09:03:14;;;;;;;13.65;4.53;;;;;;;;;;5024514;28;20053;-83
2022/11/06 09:05:43;;;;;;;11.45;3.70;;;;;;;;;;5026132;28;20053;-84
2022/11/06 09:08:11;;;;;;;5.18;3.33;;;;;;;;;;5025728;28;20105;-84
2022/11/06 09:10:39;;;;;;;3.33;3.03;;;;;;;;;;5024026;28;20053;-84
2022/11/06 09:13:06;;;;;;;3.75;2.80;;;;;;;;;;5023901;28;21143;-82
2022/11/06 09:15:33;;;;;;;3.40;2.33;;;;;;;;;;5022714;28;20495;-83
2022/11/06 09:18:00;;;;;;;8.25;2.53;;;;;;;;;;5022283;28;20464;-85
2022/11/06 09:20:30;;;;;;;2.88;2.42;;;;;;;;;;5018939;28;20054;-84
2022/11/06 09:23:01;;;;;;;7.32;2.95;;;;;;;;;;5020356;28;20053;-84
2022/11/06 09:25:30;;;;;;;27.38;3.78;;;;;;;;;;5019692;28;20467;-83
2022/11/06 09:27:58;;;;;;;4.95;2.55;;;;;;;;;;5019221;28;20416;-84
2022/11/06 09:30:29;;;;;;;2.60;2.40;;;;;;;;;;5017366;28;20064;-84
2022/11/06 09:32:58;;;;;;;3.85;2.13;;;;;;;;;;5015613;28;20054;-83
2022/11/06 09:35:27;;;;;;;4.00;2.45;;;;;;;;;;5016081;28;20060;-85
2022/11/06 09:37:54;;;;;;;3.38;2.53;;;;;;;;;;5044720;23;20585;-84
2022/11/06 09:40:25;;;;;;;3.28;2.20;;;;;;;;;;5077648;28;20040;-84
2022/11/06 09:43:11;;;;;;;2.10;2.00;;;;;;;;;;5077203;28;20056;-82
2022/11/06 09:45:40;;;;;;;6.38;2.25;;;;;;;;;;5078792;28;20048;-82
2022/11/06 09:48:10;;;;;;;2.40;2.20;;;;;;;;;;5075957;28;20048;-83
2022/11/06 09:50:44;;;;;;;2.08;1.73;;;;;;;;;;5075844;28;20059;-83
2022/11/06 09:53:23;;;;;;;1.65;1.40;;;;;;;;;;5076058;28;20056;-84
2022/11/06 09:55:51;;;;;;;5.78;4.30;;;;;;;;;;5076086;28;20072;-83
2022/11/06 09:58:21;;;;;;;4.10;1.80;;;;;;;;;;5076093;28;20071;-84
2022/11/06 10:00:50;;;;;;;2.88;1.88;;;;;;;;;;5075694;28;20045;-83
2022/11/06 10:03:29;;;;;;;10.70;5.50;;;;;;;;;;5076873;28;20387;-84
2022/11/06 10:05:56;;;;;;;4.15;2.92;;;;;;;;;;5076944;28;20049;-84
2022/11/06 10:08:25;;;;;;;2.92;1.70;;;;;;;;;;5075370;28;20052;-84
2022/11/06 10:11:12;;;;;;;13.25;7.82;;;;;;;;;;5075056;28;20055;-84
2022/11/06 10:13:58;;;;;;;5.93;2.50;;;;;;;;;;5074702;28;20045;-83
2022/11/06 10:17:00;;;;;;;16.77;8.00;;;;;;;;;;5075396;28;20422;-82
2022/11/06 10:19:44;;;;;;;8.15;3.38;;;;;;;;;;5014134;28;20047;-84
2022/11/06 10:22:15;;;;;;;2.95;2.63;;;;;;;;;;5071525;28;20140;-83
2022/11/06 10:24:45;;;;;;;2.83;2.63;;;;;;;;;;5076629;28;20048;-84
2022/11/06 10:27:17;;;;;;;4.78;3.72;;;;;;;;;;5076228;28;20052;-84
2022/11/06 10:30:02;;;;;;;10.23;4.50;;;;;;;;;;5074576;28;20052;-84
2022/11/06 10:32:37;;;;;;;5.53;2.65;;;;;;;;;;5074390;28;20087;-83
2022/11/06 10:35:16;;;;;;;3.95;2.63;;;;;;;;;;5075222;28;20143;-84
2022/11/06 10:38:03;;;;;;;3.45;2.95;;;;;;;;;;5073795;28;20049;-84
2022/11/06 10:40:32;;;;;;;2.50;2.30;;;;;;;;;;5073589;28;20521;-83
2022/11/06 10:43:14;;;;;;;5.05;2.90;;;;;;;;;;5074251;28;20045;-84
2022/11/06 10:45:43;;;;;;;6.03;2.90;;;;;;;;;;5074431;28;20047;-84
2022/11/06 10:48:22;;;;;;;3.13;2.80;;;;;;;;;;5074230;28;20445;-84
2022/11/06 10:51:15;;;;;;;5.68;2.60;;;;;;;;;;5073727;28;20049;-84
2022/11/06 10:53:53;;;;;;;19.33;6.32;;;;;;;;;;5075072;28;20127;-84
2022/11/06 10:56:31;;;;;;;30.58;10.75;;;;;;;;;;5075655;28;20533;-85
2022/11/06 10:58:58;;;;;;;23.00;7.57;;;;;;;;;;5074483;28;20053;-84
2022/11/06 11:01:25;;;;;;;22.05;6.22;;;;;;;;;;5074381;28;20041;-83
2022/11/06 11:03:53;;;;;;;17.25;4.43;;;;;;;;;;5084878;28;20090;-84
2022/11/06 11:06:20;;;;;;;11.10;5.97;;;;;;;;;;5090924;28;20100;-85
2022/11/06 11:08:51;;;;;;;6.55;2.90;;;;;;;;;;5081101;28;20040;-84
2022/11/06 11:11:21;;;;;;;6.57;3.38;;;;;;;;;;5079792;28;20048;-84
2022/11/06 11:13:48;;;;;;;3.83;3.20;;;;;;;;;;5079577;28;20051;-84
2022/11/06 11:16:23;;;;;;;6.97;3.17;;;;;;;;;;5078744;28;20045;-83
2022/11/06 11:18:50;;;;;;;6.18;3.42;;;;;;;;;;5078087;28;20045;-84
2022/11/06 11:21:18;;;;;;;9.82;4.40;;;;;;;;;;5077284;28;20048;-84
2022/11/06 11:23:45;;;;;;;4.53;2.88;;;;;;;;;;5078882;28;20151;-84
2022/11/06 11:26:19;;;;;;;3.15;2.90;;;;;;;;;;5081255;28;20044;-85
2022/11/06 11:28:54;;;;;;;4.72;3.10;;;;;;;;;;5082935;28;20045;-84
2022/11/06 11:31:33;;;;;;;4.57;3.17;;;;;;;;;;5086070;28;20045;-84
2022/11/06 11:34:06;;;;;;;6.75;4.82;;;;;;;;;;5082014;28;20111;-84
2022/11/06 11:36:53;;;;;;;2.58;2.47;;;;;;;;;;5081923;28;20507;-84
2022/11/06 11:39:21;;;;;;;5.32;2.80;;;;;;;;;;5083577;28;20060;-86
2022/11/06 11:41:48;;;;;;;8.45;2.97;;;;;;;;;;5081529;28;20044;-83
2022/11/06 11:44:17;;;;;;;6.13;3.40;;;;;;;;;;5081096;28;20388;-84
2022/11/06 11:46:46;;;;;;;12.80;7.10;;;;;;;;;;5081885;28;20044;-84
2022/11/06 11:49:29;;;;;;;11.45;4.40;;;;;;;;;;5089132;28;20044;-84
2022/11/06 11:51:57;;;;;;;9.35;3.28;;;;;;;;;;5076142;28;20124;-82
2022/11/06 11:54:26;;;;;;;4.10;2.95;;;;;;;;;;5077880;28;20052;-84
2022/11/06 11:56:56;;;;;;;3.45;3.05;;;;;;;;;;5079691;28;20048;-83
2022/11/06 11:59:37;;;;;;;5.47;3.05;;;;;;;;;;5078302;28;20041;-83
2022/11/06 12:02:31;;;;;;;7.55;4.32;;;;;;;;;;5077603;28;20479;-83
2022/11/06 12:04:59;;;;;;;5.90;3.35;;;;;;;;;;5048548;28;20123;-83
2022/11/06 12:07:28;;;;;;;7.60;4.82;;;;;;;;;;5079140;28;20131;-85
2022/11/06 12:09:55;;;;;;;25.52;5.05;;;;;;;;;;5076285;28;20052;-85
2022/11/06 12:12:24;;;;;;;12.43;4.00;;;;;;;;;;5076932;28;20044;-85
2022/11/06 12:15:05;;;;;;;24.17;5.30;;;;;;;;;;5077210;28;20049;-85
2022/11/06 12:17:34;;;;;;;9.55;4.60;;;;;;;;;;5076358;28;20053;-85
2022/11/06 12:20:02;;;;;;;42.33;18.23;;;;;;;;;;5076302;28;20586;-85
2022/11/06 12:22:34;;;;;;;11.43;5.20;;;;;;;;;;5077347;28;20051;-85
2022/11/06 12:25:15;;;;;;;4.30;3.90;;;;;;;;;;5078650;28;20063;-84
2022/11/06 12:27:45;;;;;;;8.93;5.95;;;;;;;;;;5077581;28;20048;-84
2022/11/06 12:30:20;;;;;;;3.95;3.58;;;;;;;;;;5077745;28;20418;-85
2022/11/06 12:33:02;;;;;;;4.55;4.07;;;;;;;;;;5078231;28;20044;-85
2022/11/06 12:35:41;;;;;;;5.22;3.65;;;;;;;;;;5079350;28;20049;-84
2022/11/06 12:38:24;;;;;;;6.80;3.78;;;;;;;;;;5078024;28;20052;-86
2022/11/06 12:41:14;;;;;;;4.13;3.80;;;;;;;;;;5077909;28;20051;-85
2022/11/06 12:43:46;;;;;;;4.30;3.38;;;;;;;;;;5070970;28;20045;-86
2022/11/06 12:46:20;;;;;;;10.50;4.18;;;;;;;;;;5077408;28;20056;-85
2022/11/06 12:49:06;;;;;;;11.13;5.25;;;;;;;;;;5078306;28;20060;-86
2022/11/06 12:51:43;;;;;;;48.58;6.82;;;;;;;;;;5079683;28;20547;-84
2022/11/06 12:54:22;;;;;;;44.88;21.70;;;;;;;;;;5083815;28;20068;-85
2022/11/06 12:57:09;;;;;;;50.13;9.18;;;;;;;;;;5082939;28;20048;-85
2022/11/06 12:59:52;;;;;;;13.77;6.05;;;;;;;;;;5066109;28;20052;-85
2022/11/06 13:02:24;;;;;;;14.60;4.93;;;;;;;;;;5075627;28;20048;-84
2022/11/06 13:04:51;;;;;;;4.18;3.78;;;;;;;;;;5077297;28;20102;-84
2022/11/06 13:07:39;;;;;;;26.98;8.13;;;;;;;;;;5079593;28;20041;-84
2022/11/06 13:10:18;;;;;;;11.63;4.95;;;;;;;;;;5079255;28;20063;-83
2022/11/06 13:13:03;;;;;;;69.40;7.63;;;;;;;;;;5079048;28;20052;-85
2022/11/06 13:15:40;;;;;;;5.30;4.50;;;;;;;;;;5079142;28;20049;-84
2022/11/06 13:18:20;;;;;;;19.42;5.40;;;;;;;;;;5078875;28;20056;-85
2022/11/06 13:21:06;;;;;;;7.85;5.55;;;;;;;;;;5079048;28;20135;-85
2022/11/06 13:23:44;;;;;;;25.08;7.00;;;;;;;;;;5078391;28;20395;-85
2022/11/06 13:26:17;;;;;;;13.90;5.32;;;;;;;;;;5081112;28;20044;-85
2022/11/06 13:28:47;;;;;;;;;;;;;;;;;;5080304;28;20047;-85
2022/11/06 13:31:16;;;;;;;17.73;5.30;;;;;;;;;;5079206;28;19921;-85
2022/11/06 13:33:46;;;;;;;5.78;3.70;;;;;;;;;;5078270;28;20057;-85
2022/11/06 13:36:14;;;;;;;5.22;3.92;;;;;;;;;;5077926;28;20053;-84
2022/11/06 13:38:43;;;;;;;19.98;5.10;;;;;;;;;;5077177;28;20052;-85
2022/11/06 13:41:19;;;;;;;4.43;4.05;;;;;;;;;;5073913;28;20059;-84
2022/11/06 13:43:49;;;;;;;4.38;3.97;;;;;;;;;;5075774;28;20128;-85
2022/11/06 13:46:16;;;;;;;14.57;5.82;;;;;;;;;;5076150;28;20056;-84
2022/11/06 13:49:02;;;;;;;7.30;3.63;;;;;;;;;;5076005;28;20483;-84
2022/11/06 13:51:29;;;;;;;5.18;3.40;;;;;;;;;;5075513;28;20048;-84
2022/11/06 13:54:15;;;;;;;5.03;3.70;;;;;;;;;;5077344;28;20486;-84
2022/11/06 13:56:42;;;;;;;3.50;3.10;;;;;;;;;;5076694;28;20048;-84
2022/11/06 13:59:12;;;;;;;2.95;2.75;;;;;;;;;;5075411;28;20044;-84
2022/11/06 14:01:48;;;;;;;4.25;3.35;;;;;;;;;;5074932;28;20044;-84
2022/11/06 14:04:21;;;;;;;4.88;4.38;;;;;;;;;;5074929;28;20123;-84
2022/11/06 14:06:53;;;;;;;6.50;4.55;;;;;;;;;;5075218;28;20053;-84
2022/11/06 14:09:22;;;;;;;4.38;4.00;;;;;;;;;;5076594;28;20052;-85
2022/11/06 14:11:57;;;;;;;5.55;4.75;;;;;;;;;;5075491;28;20048;-85
2022/11/06 14:14:25;;;;;;;5.40;4.22;;;;;;;;;;5075561;28;20056;-84
2022/11/06 14:17:09;;;;;;;5.53;4.45;;;;;;;;;;5075153;28;20514;-84
2022/11/06 14:19:36;;;;;;;4.78;4.38;;;;;;;;;;5075514;28;20059;-84
2022/11/06 14:22:22;;;;;;;5.13;4.72;;;;;;;;;;5075031;28;20063;-84
2022/11/06 14:24:50;;;;;;;5.80;4.55;;;;;;;;;;5075080;28;20055;-85
2022/11/06 14:27:23;;;;;;;4.95;4.45;;;;;;;;;;5075293;28;20072;-84
2022/11/06 14:29:58;;;;;;;8.68;4.95;;;;;;;;;;5075697;28;20048;-84
2022/11/06 14:32:25;;;;;;;5.63;5.00;;;;;;;;;;5078945;28;20058;-85
2022/11/06 14:34:52;;;;;;;6.38;5.07;;;;;;;;;;5077776;28;20048;-84
2022/11/06 14:37:19;;;;;;;5.65;5.15;;;;;;;;;;5076534;28;20058;-84
2022/11/06 14:39:56;;;;;;;6.13;5.45;;;;;;;;;;5075863;28;20049;-85
2022/11/06 14:42:23;;;;;;;8.38;7.30;;;;;;;;;;5077553;28;20414;-85
2022/11/06 14:44:53;;;;;;;9.25;5.93;;;;;;;;;;5076564;28;20505;-84
2022/11/06 14:47:32;;;;;;;10.65;5.18;;;;;;;;;;5075055;28;20045;-85
2022/11/06 14:50:24;;;;;;;7.78;5.93;;;;;;;;;;5080934;28;20041;-85
2022/11/06 14:52:57;;;;;;;9.05;6.35;;;;;;;;;;5083532;28;20048;-85
2022/11/06 14:55:38;;;;;;;6.57;5.60;;;;;;;;;;5079849;28;20056;-85
2022/11/06 14:58:16;;;;;;;8.98;6.03;;;;;;;;;;5077626;28;20112;-85
2022/11/06 15:00:54;;;;;;;6.95;5.38;;;;;;;;;;5078164;28;20474;-85
2022/11/06 15:03:33;;;;;;;6.85;6.10;;;;;;;;;;5078954;28;20048;-84
2022/11/06 15:06:21;;;;;;;8.52;6.43;;;;;;;;;;5077411;28;20055;-84
2022/11/06 15:08:48;;;;;;;8.27;6.75;;;;;;;;;;5076623;28;20504;-84